Time;durP1;ratioP1;P1;durP2;ratioP2;P2;SDS_P1;SDS_P2;PMS_P1;PMS_P2;Temp;Humidity;BMP_temperature;BMP_pressure;BME280_temperature;BME280_humidity;BME280_pressure;Samples;Min_cycle;Max_cycle;Signal;HPM_P1;HPM_P2
2021/06/16 00:00:54;;;;;;;9.34;6.28;;;;;;;19.18;67.71;98949.75;368698;107;1960865;-72
2021/06/16 00:02:02;;;;;;;9.00;6.53;;;;;;;19.16;67.47;98943.73;326109;107;2720893;-73
2021/06/16 00:03:07;;;;;;;9.62;6.08;;;;;;;19.16;67.77;98940.99;363780;109;1960741;-73
2021/06/16 00:04:12;;;;;;;8.74;5.89;;;;;;;19.15;67.93;98942.09;364026;110;1960916;-73
2021/06/16 00:05:28;;;;;;;8.48;6.29;;;;;;;19.26;68.07;98943.69;394161;103;1986021;-73
2021/06/16 00:06:37;;;;;;;8.76;5.94;;;;;;;19.11;67.91;98941.85;376513;106;1961966;-73
2021/06/16 00:07:42;;;;;;;9.04;6.04;;;;;;;19.08;68.29;98937.75;349363;106;1963925;-73
2021/06/16 00:08:54;;;;;;;10.64;6.17;;;;;;;19.17;68.42;98942.65;394795;104;1985869;-74
2021/06/16 00:10:00;;;;;;;9.05;6.18;;;;;;;18.98;68.42;98935.05;373947;105;1962022;-71
2021/06/16 00:11:12;;;;;;;7.97;6.31;;;;;;;19.11;68.69;98933.64;378612;105;2896029;-74
2021/06/16 00:12:17;;;;;;;7.64;6.00;;;;;;;18.98;69.04;98937.78;362732;108;1962088;-73
2021/06/16 00:13:29;;;;;;;9.44;5.83;;;;;;;19.06;69.14;98934.47;387868;104;1985994;-73
2021/06/16 00:14:35;;;;;;;7.62;5.91;;;;;;;18.94;69.81;98944.09;369263;105;1963984;-72
2021/06/16 00:15:47;;;;;;;9.19;6.46;;;;;;;19.03;69.51;98932.30;393163;104;2072989;-73
2021/06/16 00:16:53;;;;;;;9.19;6.61;;;;;;;18.93;69.64;98936.98;379229;105;1961970;-73
2021/06/16 00:18:16;;;;;;;9.33;6.61;;;;;;;18.83;70.03;98929.62;374833;105;1962025;-73
2021/06/16 00:19:29;;;;;;;10.67;6.62;;;;;;;18.95;70.24;98934.80;394678;104;1986100;-72
2021/06/16 00:20:37;;;;;;;10.84;6.13;;;;;;;18.83;70.32;98935.09;374109;107;1961881;-73
2021/06/16 00:21:50;;;;;;;6.86;5.15;;;;;;;18.94;69.86;98938.62;394315;104;1972128;-72
2021/06/16 00:22:57;;;;;;;7.08;5.23;;;;;;;18.82;70.53;98953.44;320541;107;2852902;-72
2021/06/16 00:24:20;;;;;;;8.15;5.62;;;;;;;18.88;70.95;98956.97;370299;107;1960746;-73
2021/06/16 00:25:26;;;;;;;8.67;5.41;;;;;;;18.94;70.50;98953.11;371304;107;1961050;-73
2021/06/16 00:26:33;;;;;;;8.26;5.34;;;;;;;18.97;70.28;98958.02;361961;107;1960847;-71
2021/06/16 00:27:45;;;;;;;7.45;5.23;;;;;;;19.14;70.21;98959.64;381089;106;2071884;-72
2021/06/16 00:28:51;;;;;;;9.12;5.13;;;;;;;19.10;70.09;98948.41;367837;109;1968885;-73
2021/06/16 00:29:56;;;;;;;7.00;5.02;;;;;;;19.18;70.28;98957.97;368865;109;1963929;-72
2021/06/16 00:31:09;;;;;;;9.00;4.59;;;;;;;19.33;69.70;98953.24;392980;104;1985860;-73
2021/06/16 00:32:15;;;;;;;7.41;5.23;;;;;;;19.29;69.68;98951.34;302538;106;2352876;-73
2021/06/16 00:33:26;;;;;;;8.36;5.79;;;;;;;19.46;69.36;98957.30;392740;103;2071028;-73
2021/06/16 00:34:32;;;;;;;8.06;5.80;;;;;;;19.41;69.25;98951.02;379397;105;1970023;-73
2021/06/16 00:35:56;;;;;;;8.83;5.96;;;;;;;19.43;69.15;98955.13;348644;105;2509986;-71
2021/06/16 00:37:08;;;;;;;9.27;6.11;;;;;;;19.42;69.03;98942.52;394891;104;1966055;-73
2021/06/16 00:38:13;;;;;;;8.79;6.08;;;;;;;19.35;69.19;98958.45;374652;107;1961958;-72
2021/06/16 00:39:25;;;;;;;9.00;6.02;;;;;;;19.42;69.15;98961.68;384677;104;2964901;-72
2021/06/16 00:40:32;;;;;;;10.52;6.92;;;;;;;19.29;69.31;98954.92;329062;106;2102034;-73
2021/06/16 00:41:38;;;;;;;10.83;7.13;;;;;;;19.26;69.10;98955.45;348591;108;1962074;-74
2021/06/16 00:42:51;;;;;;;8.13;6.47;;;;;;;19.33;69.60;98949.69;391699;104;1966083;-73
2021/06/16 00:43:58;;;;;;;11.26;7.02;;;;;;;19.10;69.37;98941.04;332579;106;2735997;-73
2021/06/16 00:45:11;;;;;;;10.93;7.36;;;;;;;19.26;69.98;98955.45;387504;106;1963020;-73
2021/06/16 00:46:17;;;;;;;8.86;6.23;;;;;;;19.12;69.86;98946.22;367575;108;1969010;-75
2021/06/16 00:47:40;;;;;;;8.72;6.84;;;;;;;19.10;69.73;98945.67;361068;110;1961882;-73
2021/06/16 00:48:53;;;;;;;10.00;7.02;;;;;;;19.19;69.94;98956.88;394599;103;1986885;-73
2021/06/16 00:49:58;;;;;;;10.53;7.03;;;;;;;19.06;69.97;98948.16;375366;107;1964982;-74
2021/06/16 00:51:10;;;;;;;10.46;6.76;;;;;;;19.15;70.12;98953.05;392068;103;1986943;-73
2021/06/16 00:52:15;;;;;;;9.57;6.89;;;;;;;19.02;70.21;98952.53;374210;107;1962118;-73
2021/06/16 00:53:39;;;;;;;8.36;5.79;;;;;;;19.01;70.17;98950.09;370038;107;1962069;-73
2021/06/16 00:54:45;;;;;;;8.44;5.70;;;;;;;19.04;70.41;98944.88;369698;107;1962028;-72
2021/06/16 00:55:57;;;;;;;8.83;5.92;;;;;;;19.21;70.46;98951.92;392474;104;1985991;-74
2021/06/16 00:57:03;;;;;;;7.52;5.46;;;;;;;19.17;70.50;98956.34;365157;105;1962052;-74
2021/06/16 00:58:15;;;;;;;8.55;5.78;;;;;;;19.36;70.29;98949.13;393478;103;2077999;-72
2021/06/16 00:59:20;;;;;;;9.99;5.26;;;;;;;19.35;70.18;98955.71;378929;105;1961998;-72
2021/06/16 01:00:48;;;;;;;10.97;5.26;;;;;;;19.42;69.94;98958.13;380740;105;1963079;-72
2021/06/16 01:02:04;;;;;;;8.28;6.00;;;;;;;19.65;69.68;98959.39;399222;102;1986031;-72
2021/06/16 01:03:40;;;;;;;9.84;5.87;;;;;;;19.60;69.60;98952.01;348164;105;1961954;-73
2021/06/16 01:04:53;;;;;;;8.21;5.79;;;;;;;19.85;69.14;98958.48;395587;104;1985973;-74
2021/06/16 01:06:06;;;;;;;9.11;6.07;;;;;;;19.77;68.99;98951.69;376114;105;1962038;-73
2021/06/16 01:07:32;;;;;;;9.72;6.55;;;;;;;19.76;69.03;98950.84;375485;105;1966096;-72
2021/06/16 01:09:02;;;;;;;9.98;6.27;;;;;;;19.85;69.19;98947.53;346315;106;2874965;-71
2021/06/16 01:10:10;;;;;;;9.98;6.92;;;;;;;19.72;68.89;98954.45;371981;107;1962046;-73
2021/06/16 01:11:24;;;;;;;9.36;7.06;;;;;;;19.79;69.25;98948.64;392704;104;1985834;-72
2021/06/16 01:12:56;;;;;;;10.20;7.16;;;;;;;19.64;69.08;98942.14;371446;106;1961978;-72
2021/06/16 01:14:23;;;;;;;9.92;7.44;;;;;;;19.62;69.11;98946.26;370950;107;1961926;-72
2021/06/16 01:15:57;;;;;;;12.04;7.32;;;;;;;19.66;69.60;98947.31;392232;104;1986988;-72
2021/06/16 01:17:06;;;;;;;8.88;7.69;;;;;;;19.49;69.91;98944.95;326891;106;2121913;-72
2021/06/16 01:18:19;;;;;;;10.16;6.73;;;;;;;19.54;70.27;98956.70;369677;106;1987012;-72
2021/06/16 01:20:01;;;;;;;9.29;6.55;;;;;;;19.38;69.89;98946.11;366952;108;1962000;-72
2021/06/16 01:21:22;;;;;;;9.67;6.86;;;;;;;19.37;70.09;98952.67;363004;110;1962013;-72
2021/06/16 01:22:41;;;;;;;9.43;6.92;;;;;;;19.36;70.36;98951.86;359866;110;1962063;-71
2021/06/16 01:24:10;;;;;;;9.92;6.27;;;;;;;19.54;70.36;98947.67;394352;104;1986977;-71
2021/06/16 01:25:49;;;;;;;9.05;5.91;;;;;;;19.45;70.35;98950.19;337901;107;2704089;-71
2021/06/16 01:26:57;;;;;;;11.07;6.66;;;;;;;19.54;70.19;98942.19;375240;107;1962032;-72
2021/06/16 01:28:16;;;;;;;9.67;5.97;;;;;;;19.76;69.91;98942.62;387607;106;1995000;-71
2021/06/16 01:29:30;;;;;;;9.04;6.01;;;;;;;19.71;69.87;98939.94;370316;108;1962009;-72
2021/06/16 01:30:45;;;;;;;9.62;6.16;;;;;;;19.92;69.52;98945.27;347234;109;2561901;-72
2021/06/16 01:31:51;;;;;;;8.02;6.06;;;;;;;19.83;69.42;98942.31;361878;109;1960846;-71
2021/06/16 01:33:06;;;;;;;9.37;6.89;;;;;;;19.96;69.22;98946.34;326807;104;2361859;-73
2021/06/16 01:34:13;;;;;;;9.73;6.97;;;;;;;19.83;69.12;98945.05;377541;105;1969973;-72
2021/06/16 01:35:39;;;;;;;9.34;7.28;;;;;;;19.80;69.13;98945.62;377916;105;1961973;-72
2021/06/16 01:36:54;;;;;;;10.38;7.07;;;;;;;19.85;69.23;98945.59;393977;104;1986007;-70
2021/06/16 01:38:07;;;;;;;10.95;7.94;;;;;;;19.82;69.27;98957.13;396366;103;1986075;-72
2021/06/16 01:39:34;;;;;;;10.24;7.44;;;;;;;19.68;69.27;98956.11;375020;107;1961955;-73
2021/06/16 01:40:49;;;;;;;10.82;7.51;;;;;;;19.71;70.04;98958.28;385831;106;1985952;-71
2021/06/16 01:41:59;;;;;;;10.56;7.51;;;;;;;19.54;69.56;98962.18;367148;107;1963134;-71
2021/06/16 01:43:23;;;;;;;12.13;7.12;;;;;;;19.47;70.15;98961.66;369953;108;1962006;-71
2021/06/16 01:44:36;;;;;;;8.67;6.93;;;;;;;19.52;70.19;98964.37;392232;104;1961951;-73
2021/06/16 01:45:45;;;;;;;9.62;6.72;;;;;;;19.40;70.07;98965.83;308424;106;2492053;-72
2021/06/16 01:46:59;;;;;;;10.61;6.61;;;;;;;19.47;70.63;98964.40;357289;104;2709891;-72
2021/06/16 01:48:08;;;;;;;9.33;6.02;;;;;;;19.35;70.26;98969.41;375092;106;1962980;-72
2021/06/16 01:49:32;;;;;;;8.98;6.24;;;;;;;19.35;70.39;98969.41;375072;105;1962047;-71
2021/06/16 01:51:07;;;;;;;10.19;6.77;;;;;;;19.50;70.38;98972.08;370676;99;2774937;-75
2021/06/16 01:52:14;;;;;;;7.61;5.26;;;;;;;19.42;70.19;98967.16;393917;100;1961905;-72
2021/06/16 01:53:27;;;;;;;8.84;6.22;;;;;;;19.59;69.97;98968.75;392790;103;1985984;-73
2021/06/16 01:54:36;;;;;;;8.73;5.56;;;;;;;19.45;69.87;98963.88;375100;107;1961931;-73
2021/06/16 01:55:42;;;;;;;9.46;5.79;;;;;;;19.58;69.72;98975.31;348048;107;1962048;-73
2021/06/16 01:56:56;;;;;;;8.89;6.38;;;;;;;19.71;69.58;98972.82;381381;106;2072011;-73
2021/06/16 01:58:03;;;;;;;9.19;6.79;;;;;;;19.63;69.38;98972.55;324920;107;2727016;-73
2021/06/16 01:59:17;;;;;;;9.74;7.26;;;;;;;19.71;69.39;98969.23;393372;104;1985897;-72
2021/06/16 02:00:24;;;;;;;9.76;7.18;;;;;;;19.59;69.37;98977.78;349639;105;1962992;-73
2021/06/16 02:01:38;;;;;;;12.22;8.07;;;;;;;19.68;69.61;98981.58;393944;104;1986076;-74
2021/06/16 02:02:43;;;;;;;12.37;8.34;;;;;;;19.49;69.38;98969.61;318809;107;2157955;-73
2021/06/16 02:04:08;;;;;;;11.14;8.19;;;;;;;19.54;69.39;98975.88;367807;107;1961931;-73
2021/06/16 02:05:21;;;;;;;10.67;8.14;;;;;;;19.64;69.62;98977.75;393730;104;1988221;-73
2021/06/16 02:06:30;;;;;;;10.56;7.98;;;;;;;19.52;69.42;98978.07;374387;105;1963007;-72
2021/06/16 02:07:39;;;;;;;12.16;8.02;;;;;;;19.52;69.39;98980.00;367708;106;1961902;-72
2021/06/16 02:08:50;;;;;;;10.79;8.02;;;;;;;19.52;69.45;98983.55;338993;108;1964085;-71
2021/06/16 02:09:57;;;;;;;9.92;7.68;;;;;;;19.54;69.34;98988.77;367882;108;1964079;-71
2021/06/16 02:11:30;;;;;;;10.71;8.48;;;;;;;19.67;69.53;98979.14;400683;101;2080959;-71
2021/06/16 02:12:39;;;;;;;11.92;7.53;;;;;;;19.57;69.29;98987.37;353716;104;1961858;-72
2021/06/16 02:13:54;;;;;;;11.91;8.31;;;;;;;19.67;69.57;98995.58;351754;104;2109972;-72
2021/06/16 02:15:07;;;;;;;11.88;8.12;;;;;;;19.54;69.21;98995.05;373063;107;1962057;-72
2021/06/16 02:16:40;;;;;;;;;;;;;;;19.52;69.27;98997.25;378083;107;1961025;-72
2021/06/16 02:17:55;;;;;;;9.59;7.78;;;;;;;19.58;69.40;99000.78;341076;106;2134007;-73
2021/06/16 02:19:10;;;;;;;12.03;8.12;;;;;;;19.59;69.19;99009.84;368102;104;1985942;-73
2021/06/16 02:20:34;;;;;;;11.52;7.87;;;;;;;19.45;69.50;99006.86;375221;107;1961903;-73
2021/06/16 02:21:47;;;;;;;11.46;8.57;;;;;;;19.55;69.31;99004.92;383962;104;3046072;-73
2021/06/16 02:22:53;;;;;;;12.17;8.08;;;;;;;19.41;69.30;99006.62;369249;106;2849106;-74
2021/06/16 02:24:18;;;;;;;10.49;7.64;;;;;;;19.40;69.32;99004.17;377119;106;1962070;-73
2021/06/16 02:25:31;;;;;;;9.91;7.97;;;;;;;19.50;69.40;99002.21;393357;104;1972995;-73
2021/06/16 02:26:39;;;;;;;10.82;7.98;;;;;;;19.38;69.14;99011.84;340193;107;2592036;-72
2021/06/16 02:27:45;;;;;;;13.68;8.40;;;;;;;19.36;69.05;99003.08;372451;107;1962040;-73
2021/06/16 02:28:51;;;;;;;12.82;8.77;;;;;;;19.34;69.14;99003.34;374142;107;1962017;-73
2021/06/16 02:30:05;;;;;;;12.30;8.41;;;;;;;19.45;69.33;99007.71;389769;103;2072054;-74
2021/06/16 02:31:11;;;;;;;11.00;8.36;;;;;;;19.33;69.20;99001.72;375270;105;1961926;-73
2021/06/16 02:32:17;;;;;;;11.69;7.93;;;;;;;19.33;69.10;99005.27;372810;106;1963939;-72
2021/06/16 02:33:29;;;;;;;12.86;8.31;;;;;;;19.46;69.18;99006.59;400854;101;1986026;-73
2021/06/16 02:34:36;;;;;;;12.48;8.73;;;;;;;19.37;69.06;99011.03;339272;105;2743957;-74
2021/06/16 02:35:48;;;;;;;14.58;9.16;;;;;;;19.52;69.12;99012.88;393773;104;1966027;-72
2021/06/16 02:36:59;;;;;;;12.54;8.46;;;;;;;19.43;69.04;99011.83;376363;107;1962018;-71
2021/06/16 02:38:33;;;;;;;10.86;8.24;;;;;;;19.59;68.95;99018.87;415751;99;1987070;-72
2021/06/16 02:39:42;;;;;;;11.39;8.16;;;;;;;19.50;68.74;99013.17;396143;101;1962061;-73
2021/06/16 02:41:14;;;;;;;11.86;9.12;;;;;;;19.65;68.73;99016.92;346481;103;2136935;-71
2021/06/16 02:42:21;;;;;;;12.45;8.14;;;;;;;19.57;68.52;99018.33;372121;107;1970102;-72
2021/06/16 02:43:45;;;;;;;15.29;9.04;;;;;;;19.60;68.49;99017.77;365374;109;1962050;-72
2021/06/16 02:45:01;;;;;;;11.61;8.41;;;;;;;19.75;68.44;99014.17;348614;104;2817977;-73
2021/06/16 02:46:10;;;;;;;12.11;8.31;;;;;;;19.68;68.28;99019.13;379687;105;1970028;-74
2021/06/16 02:47:17;;;;;;;14.39;9.26;;;;;;;19.72;68.18;99026.52;379584;105;1962085;-73
2021/06/16 02:48:30;;;;;;;15.85;8.57;;;;;;;19.87;68.07;99022.04;378137;109;1987015;-73
2021/06/16 02:49:47;;;;;;;14.28;8.85;;;;;;;19.78;67.90;99030.04;360965;110;1961850;-73
2021/06/16 02:51:00;;;;;;;13.42;8.96;;;;;;;19.94;67.91;99022.55;383579;104;1986938;-72
2021/06/16 02:52:11;;;;;;;18.83;11.23;;;;;;;19.87;67.78;99025.63;374459;107;1962020;-73
2021/06/16 02:53:35;;;;;;;16.51;10.12;;;;;;;19.90;67.67;99024.20;365413;107;1962923;-73
2021/06/16 02:54:52;;;;;;;13.85;8.66;;;;;;;20.05;67.50;99021.38;391053;103;1962996;-73
2021/06/16 02:56:01;;;;;;;13.12;8.89;;;;;;;19.96;67.38;99015.69;375205;106;1968870;-73
2021/06/16 02:57:08;;;;;;;14.19;9.73;;;;;;;19.98;67.39;99018.97;377712;106;1962050;-72
2021/06/16 02:58:16;;;;;;;12.69;9.49;;;;;;;20.01;67.32;99011.29;378333;105;1962014;-73
2021/06/16 02:59:30;;;;;;;13.68;10.14;;;;;;;20.15;67.28;99013.09;392571;104;1986849;-72
2021/06/16 03:00:37;;;;;;;12.88;9.04;;;;;;;20.04;67.22;99011.53;342179;108;1962028;-72
2021/06/16 03:01:48;;;;;;;11.68;8.39;;;;;;;20.06;67.22;99011.23;368923;108;1963049;-70
2021/06/16 03:03:01;;;;;;;16.32;9.92;;;;;;;20.19;67.22;99008.69;396355;103;1985943;-73
2021/06/16 03:04:08;;;;;;;14.53;9.26;;;;;;;20.10;67.21;99013.13;299899;105;2357991;-73
2021/06/16 03:05:17;;;;;;;14.06;8.99;;;;;;;20.13;67.07;99014.48;375713;105;1961792;-71
2021/06/16 03:06:29;;;;;;;15.54;9.81;;;;;;;20.29;67.02;99018.74;400560;104;1985977;-73
2021/06/16 03:07:36;;;;;;;12.12;7.91;;;;;;;20.21;66.90;99017.42;376867;105;1965375;-73
2021/06/16 03:08:51;;;;;;;11.94;8.75;;;;;;;20.36;66.81;99013.77;380992;106;1987009;-72
2021/06/16 03:09:59;;;;;;;15.79;9.17;;;;;;;20.29;66.64;99016.00;369056;109;1962042;-73
2021/06/16 03:11:25;;;;;;;14.02;9.61;;;;;;;20.33;66.62;99006.11;360788;108;2926149;-73
2021/06/16 03:12:32;;;;;;;19.58;8.91;;;;;;;20.39;66.46;99002.21;359915;110;1962060;-72
2021/06/16 03:13:46;;;;;;;13.69;9.07;;;;;;;20.53;66.36;99005.11;364083;101;2650963;-74
2021/06/16 03:14:52;;;;;;;13.71;8.81;;;;;;;20.45;66.27;99008.47;383154;103;1962038;-74
2021/06/16 03:15:58;;;;;;;13.28;8.82;;;;;;;20.50;66.23;99002.13;383704;103;1964064;-74
2021/06/16 03:17:05;;;;;;;11.69;9.06;;;;;;;20.55;66.17;99010.35;383262;103;1961985;-74
2021/06/16 03:18:20;;;;;;;12.93;8.99;;;;;;;20.72;66.06;99008.02;396936;102;1984826;-73
2021/06/16 03:19:27;;;;;;;16.08;8.56;;;;;;;20.67;65.88;99012.70;311248;105;2380694;-73
2021/06/16 03:20:41;;;;;;;15.63;8.79;;;;;;;20.85;65.82;99010.08;400283;103;1985900;-73
2021/06/16 03:21:57;;;;;;;11.57;8.43;;;;;;;20.92;65.65;99008.91;385323;106;1986013;-74
2021/06/16 03:23:22;;;;;;;15.38;8.36;;;;;;;20.86;65.49;99003.47;370278;108;1964044;-72
2021/06/16 03:24:36;;;;;;;15.82;9.79;;;;;;;21.07;65.26;99011.50;396778;104;1964832;-73
2021/06/16 03:25:45;;;;;;;16.45;10.57;;;;;;;21.01;65.08;99015.39;337396;107;2688045;-74
2021/06/16 03:27:09;;;;;;;12.51;8.81;;;;;;;21.08;64.79;99013.13;372433;106;1962031;-73
2021/06/16 03:28:23;;;;;;;13.13;9.70;;;;;;;21.26;64.71;99017.87;403978;101;1986036;-72
2021/06/16 03:29:30;;;;;;;14.72;9.87;;;;;;;21.18;64.54;99013.02;377384;105;1961988;-74
2021/06/16 03:30:44;;;;;;;12.87;8.93;;;;;;;21.32;64.39;99015.88;395228;104;1986044;-74
2021/06/16 03:31:53;;;;;;;15.82;9.88;;;;;;;21.24;64.36;99014.59;351508;107;1962016;-74
2021/06/16 03:33:06;;;;;;;13.64;9.34;;;;;;;21.40;64.23;99017.19;394222;104;1985892;-73
2021/06/16 03:34:12;;;;;;;18.10;10.47;;;;;;;21.33;64.04;99023.02;375813;107;1963949;-74
2021/06/16 03:35:36;;;;;;;16.37;9.37;;;;;;;21.35;63.88;99020.78;369245;105;1962028;-74
2021/06/16 03:38:49;;;;;;;15.06;9.08;;;;;;;21.49;63.23;99030.00;393583;104;1986008;-73
2021/06/16 03:39:57;;;;;;;14.18;9.08;;;;;;;21.38;63.25;99024.91;376997;107;1961955;-74
2021/06/16 03:41:10;;;;;;;16.74;9.53;;;;;;;21.52;63.11;99017.60;396387;104;1986040;-72
2021/06/16 03:42:16;;;;;;;19.77;9.69;;;;;;;21.41;63.16;99029.84;367661;105;2907034;-73
2021/06/16 03:43:43;;;;;;;14.41;8.36;;;;;;;21.40;63.00;99026.25;375381;107;1961938;-73
2021/06/16 03:44:58;;;;;;;10.62;7.00;;;;;;;21.51;62.70;99027.78;387552;106;1987078;-73
2021/06/16 03:46:08;;;;;;;12.23;7.51;;;;;;;21.38;62.47;99027.65;367758;109;1960946;-73
2021/06/16 03:47:23;;;;;;;15.36;8.71;;;;;;;21.45;62.41;99028.94;393869;104;1984885;-73
2021/06/16 03:48:30;;;;;;;10.72;7.37;;;;;;;21.34;62.41;99026.59;325426;106;2171957;-72
2021/06/16 03:49:56;;;;;;;14.61;8.88;;;;;;;21.31;62.18;99030.73;307095;106;2323007;-73
2021/06/16 03:51:10;;;;;;;11.44;7.50;;;;;;;21.40;61.99;99028.19;343757;104;2880036;-73
2021/06/16 03:52:19;;;;;;;12.68;7.48;;;;;;;21.27;61.92;99033.23;376296;105;1962013;-73
2021/06/16 03:53:31;;;;;;;15.71;8.02;;;;;;;21.37;61.68;99036.98;394318;104;1987010;-73
2021/06/16 03:54:38;;;;;;;11.54;7.74;;;;;;;21.26;61.61;99031.60;362777;109;1961894;-75
2021/06/16 03:55:51;;;;;;;12.54;7.91;;;;;;;21.38;61.19;99036.73;353680;106;2022044;-75
2021/06/16 03:56:57;;;;;;;14.93;7.78;;;;;;;21.28;61.06;99032.14;368219;107;1962068;-75
2021/06/16 03:58:23;;;;;;;10.87;6.94;;;;;;;21.30;60.84;99040.06;347167;109;1961997;-74
2021/06/16 03:59:37;;;;;;;13.37;7.27;;;;;;;21.47;60.42;99036.91;346545;103;2789024;-74
2021/06/16 04:00:44;;;;;;;11.21;6.79;;;;;;;21.38;60.37;99038.64;374294;105;1962070;-75
2021/06/16 04:01:59;;;;;;;10.86;6.75;;;;;;;21.53;60.03;99046.71;392899;104;2002969;-73
2021/06/16 04:03:08;;;;;;;14.56;7.48;;;;;;;21.43;59.77;99042.14;376912;106;1963007;-74
2021/06/16 04:04:32;;;;;;;9.51;6.21;;;;;;;21.44;58.97;99043.80;364522;107;2926055;-74
2021/06/16 04:05:45;;;;;;;11.13;7.49;;;;;;;21.58;59.01;99048.59;394522;104;1962032;-73
2021/06/16 04:06:50;;;;;;;11.32;6.86;;;;;;;21.48;59.05;99053.08;376378;105;1968888;-73
2021/06/16 04:08:05;;;;;;;11.58;6.54;;;;;;;21.58;58.97;99049.39;383624;104;2953971;-74
2021/06/16 04:09:12;;;;;;;11.08;6.54;;;;;;;21.43;58.77;99050.39;376108;106;1963055;-74
2021/06/16 04:10:38;;;;;;;13.10;6.74;;;;;;;21.41;59.01;99044.39;373334;106;1962986;-74
2021/06/16 04:11:50;;;;;;;11.61;6.98;;;;;;;21.51;59.04;99052.52;372519;106;1971829;-75
2021/06/16 04:12:55;;;;;;;9.69;6.17;;;;;;;21.38;59.14;99047.73;362256;111;1964069;-74
2021/06/16 04:14:08;;;;;;;9.56;7.13;;;;;;;21.45;59.22;99039.93;402660;101;2074043;-74
2021/06/16 04:15:16;;;;;;;11.61;6.52;;;;;;;21.32;59.43;99043.34;386619;103;1963081;-71
2021/06/16 04:16:42;;;;;;;12.76;9.42;;;;;;;21.33;59.39;99055.15;387145;103;1962346;-70
2021/06/16 04:17:58;;;;;;;14.25;9.89;;;;;;;21.43;59.48;99047.64;387966;104;2965062;-70
2021/06/16 04:19:05;;;;;;;12.03;7.40;;;;;;;21.35;59.39;99058.43;379607;105;1962051;-70
2021/06/16 04:20:12;;;;;;;13.24;7.29;;;;;;;21.35;59.37;99055.68;368129;109;1962986;-70
2021/06/16 04:21:28;;;;;;;9.83;6.67;;;;;;;21.49;59.04;99051.17;357657;106;2465106;-70
2021/06/16 04:22:33;;;;;;;8.76;6.15;;;;;;;21.38;59.00;99058.72;359131;109;1963027;-70
2021/06/16 04:23:47;;;;;;;12.20;7.94;;;;;;;21.53;58.91;99062.39;390341;104;2072101;-71
2021/06/16 04:24:53;;;;;;;17.67;8.14;;;;;;;21.42;58.97;99057.00;302678;106;2356986;-72
2021/06/16 04:26:20;;;;;;;11.14;8.01;;;;;;;21.44;59.00;99060.28;373670;105;1962115;-70
2021/06/16 04:27:32;;;;;;;10.98;7.17;;;;;;;21.60;58.77;99058.17;395152;104;1986990;-72
2021/06/16 04:28:49;;;;;;;14.16;8.88;;;;;;;21.52;58.79;99064.32;372778;107;1961974;-71
2021/06/16 04:29:54;;;;;;;13.08;8.05;;;;;;;21.58;58.71;99060.39;350135;110;1961974;-70
2021/06/16 04:31:00;;;;;;;14.18;7.11;;;;;;;21.65;58.54;99063.61;345046;109;1961948;-70
2021/06/16 04:32:12;;;;;;;12.76;8.24;;;;;;;21.83;58.20;99058.42;392029;104;1986941;-71
2021/06/16 04:33:18;;;;;;;11.61;7.48;;;;;;;21.79;58.19;99069.20;370775;107;1961824;-70
2021/06/16 04:34:30;;;;;;;16.98;7.36;;;;;;;21.98;57.91;99062.91;337053;108;2874885;-71
2021/06/16 04:35:36;;;;;;;12.89;7.73;;;;;;;21.91;57.28;99060.52;311448;111;2177964;-71
2021/06/16 04:36:51;;;;;;;10.28;7.08;;;;;;;22.05;57.55;99060.62;354744;106;2870941;-71
2021/06/16 04:37:56;;;;;;;12.53;8.06;;;;;;;21.97;57.35;99059.35;317039;110;2110995;-71
2021/06/16 04:39:21;;;;;;;13.40;7.68;;;;;;;22.01;57.23;99057.63;359589;110;1962962;-71
2021/06/16 04:40:27;;;;;;;10.99;6.99;;;;;;;22.06;57.05;99062.25;283997;113;2382001;-71
2021/06/16 04:41:40;;;;;;;12.71;7.53;;;;;;;22.21;56.85;99053.00;384001;106;1962018;-71
2021/06/16 04:42:45;;;;;;;12.62;7.36;;;;;;;22.09;57.00;99059.71;362275;109;1968991;-69
2021/06/16 04:43:58;;;;;;;10.34;7.12;;;;;;;22.21;56.79;99064.01;345406;104;2890039;-70
2021/06/16 04:45:05;;;;;;;11.09;6.60;;;;;;;22.10;56.78;99064.12;346453;105;1999024;-71
2021/06/16 04:46:18;;;;;;;9.87;6.64;;;;;;;22.21;56.51;99066.75;395768;104;1987025;-70
2021/06/16 04:47:23;;;;;;;10.31;6.54;;;;;;;22.08;56.79;99071.84;361481;108;2922971;-71
2021/06/16 04:48:36;;;;;;;13.04;6.98;;;;;;;22.22;56.59;99062.87;380260;106;2071963;-71
2021/06/16 04:49:42;;;;;;;10.47;6.31;;;;;;;22.17;56.52;99069.23;366761;107;1961996;-69
2021/06/16 04:51:05;;;;;;;12.24;7.49;;;;;;;22.21;56.42;99078.57;339269;109;1962029;-70
2021/06/16 04:52:12;;;;;;;14.18;7.63;;;;;;;22.26;56.22;99061.18;332844;109;1997975;-71
2021/06/16 04:53:17;;;;;;;12.83;7.61;;;;;;;22.39;56.03;99071.44;363300;110;1962027;-71
2021/06/16 04:54:23;;;;;;;12.69;7.35;;;;;;;22.48;55.88;99063.31;363378;109;1961966;-68
2021/06/16 04:55:36;;;;;;;11.32;7.27;;;;;;;22.70;55.37;99068.19;395364;103;1987011;-70
2021/06/16 04:56:42;;;;;;;11.43;7.22;;;;;;;22.67;55.40;99074.30;315217;106;2236046;-70
2021/06/16 04:57:47;;;;;;;9.87;6.02;;;;;;;22.73;54.84;99070.33;342078;108;1961954;-71
2021/06/16 04:58:52;;;;;;;13.13;7.69;;;;;;;22.79;54.55;99069.95;334440;108;2007844;-70
2021/06/16 05:00:07;;;;;;;10.70;6.94;;;;;;;22.99;54.35;99065.23;396422;104;1985913;-71
2021/06/16 05:01:13;;;;;;;12.99;7.87;;;;;;;22.97;54.24;99068.31;341304;105;2063981;-70
2021/06/16 05:02:26;;;;;;;12.12;7.07;;;;;;;23.17;54.15;99063.54;386330;104;2071021;-71
2021/06/16 05:03:31;;;;;;;14.45;7.09;;;;;;;23.13;54.02;99071.61;370093;108;1971072;-70
2021/06/16 05:04:36;;;;;;;10.64;6.76;;;;;;;23.22;53.61;99063.45;370795;109;1961944;-71
2021/06/16 05:05:50;;;;;;;10.75;7.29;;;;;;;23.38;53.09;99064.78;347945;104;2829052;-70
2021/06/16 05:06:55;;;;;;;11.88;6.66;;;;;;;23.30;53.13;99064.69;339531;105;2063028;-70
2021/06/16 05:08:07;;;;;;;12.30;6.29;;;;;;;23.46;53.09;99066.83;395801;104;1987036;-71
2021/06/16 05:09:13;;;;;;;17.92;7.34;;;;;;;23.39;52.82;99065.59;373460;106;1962055;-70
2021/06/16 05:10:37;;;;;;;10.41;7.31;;;;;;;23.41;52.85;99069.68;334471;106;2088022;-70
2021/06/16 05:11:42;;;;;;;12.13;6.71;;;;;;;23.48;52.75;99067.34;362318;107;1961931;-71
2021/06/16 05:12:54;;;;;;;11.14;6.22;;;;;;;23.65;52.71;99077.75;396932;104;1985975;-70
2021/06/16 05:14:17;;;;;;;13.14;6.98;;;;;;;23.72;52.26;99065.55;396000;104;1986008;-71
2021/06/16 05:15:23;;;;;;;11.31;6.74;;;;;;;23.65;52.09;99072.23;337340;108;2867937;-71
2021/06/16 05:16:35;;;;;;;9.77;5.85;;;;;;;23.82;51.95;99068.91;392359;106;1988936;-70
2021/06/16 05:17:42;;;;;;;9.59;6.27;;;;;;;23.73;51.76;99070.73;365356;109;1961998;-72
2021/06/16 05:19:20;;;;;;;11.04;7.20;;;;;;;23.86;51.57;99080.94;356328;99;2460986;-70
2021/06/16 05:20:25;;;;;;;12.28;7.07;;;;;;;23.75;51.37;99079.52;359010;101;2022851;-71
2021/06/16 05:21:51;;;;;;;11.32;6.97;;;;;;;23.73;51.41;99078.19;343738;101;2844190;-71
2021/06/16 05:22:57;;;;;;;12.47;7.47;;;;;;;23.74;51.43;99080.66;374964;106;1962037;-70
2021/06/16 05:24:04;;;;;;;10.44;6.99;;;;;;;23.76;51.52;99089.42;388422;103;1962040;-70
2021/06/16 05:25:11;;;;;;;12.63;6.91;;;;;;;23.75;51.49;99085.03;385604;104;1963037;-71
2021/06/16 05:26:23;;;;;;;10.47;6.60;;;;;;;23.86;51.61;99091.16;392174;106;1985972;-72
2021/06/16 05:27:28;;;;;;;10.46;5.12;;;;;;;23.72;51.32;99088.41;372048;107;1962065;-71
2021/06/16 05:28:41;;;;;;;10.93;6.51;;;;;;;23.81;51.29;99086.55;383261;105;2071067;-73
2021/06/16 05:29:47;;;;;;;10.84;6.55;;;;;;;23.69;51.22;99092.57;337754;109;2887028;-71
2021/06/16 05:31:00;;;;;;;13.59;6.92;;;;;;;23.80;51.14;99087.69;393313;104;1964983;-70
2021/06/16 05:32:05;;;;;;;10.51;6.42;;;;;;;23.70;51.26;99087.86;373551;107;1963054;-71
2021/06/16 05:33:29;;;;;;;9.89;6.03;;;;;;;23.70;51.30;99091.44;309407;108;2293654;-71
2021/06/16 05:34:41;;;;;;;11.13;6.28;;;;;;;23.82;51.38;99095.67;396058;104;1961967;-71